Flight Track Log - Related Links

Times and Time Zones

All times are in EST time to prevent confusion due to time zone crossing. See the QJE1940 flight status page for this flight to view local times or setup timezone preferences in your user account.

Time Position Orientation Groundspeed Altitude Reporting Facility
EST Latitude Longitude Course Direction KTS MPH feet Rate Location/Type
Mon 07:49:08 PM -25.1296 131.0659 63° Northeast 27,000  Level Aus ATC (Calculated)
Mon 07:52:00 PM -25.0157 131.3130 63° Northeast  Level FlightAware Approximate
Mon 07:53:00 PM -24.9758 131.3990 63° Northeast  Level FlightAware Approximate
Mon 07:54:00 PM -24.9359 131.4850 63° Northeast  Level FlightAware Approximate
Mon 07:55:00 PM -24.8960 131.5710 63° Northeast  Level FlightAware Approximate
Mon 07:55:03 PM -24.8138 131.7474 63° Northeast 27,000  Level Aus ATC (Calculated)
Mon 07:56:51 PM -24.7393 131.9066 63° Northeast 27,000  Level Aus ATC (Calculated)
Mon 07:57:00 PM -24.7356 131.9147 63° Northeast  Level FlightAware Approximate
Mon 07:57:49 PM -24.6784 132.0365 243° Southwest 27,000  Level Aus ATC (Calculated)
Mon 07:58:00 PM -24.6931 132.0052 63° Northeast  Level FlightAware Approximate
Mon 07:58:05 PM -24.6784 132.0365 63° Northeast 27,000  Level Aus ATC (Calculated)
Mon 07:59:00 PM -24.6308 132.1378 63° Northeast  Level FlightAware Approximate
Mon 08:00:00 PM -24.6012 132.2006 63° Northeast  Level FlightAware Approximate
Mon 08:00:43 PM -24.4949 132.4255 243° Southwest 27,000  Level Aus ATC (Calculated)
Mon 08:01:00 PM -24.5609 132.2861 63° Northeast  Level FlightAware Approximate
Mon 08:02:00 PM -24.5878 132.3558 214° Southwest  Level FlightAware Approximate
Mon 08:02:02 PM -24.4515 132.5167 237° Southwest 2,800  Level Aus ATC (Calculated)
Mon 08:03:00 PM -24.5154 132.4101 34° Northeast  Level FlightAware Approximate
Mon 08:04:00 PM -24.4754 132.4957 62° Northeast  Level Estimated
Mon 08:04:35 PM -24.3207 132.7901 242° Southwest 2,800  Level Aus ATC (Calculated)
Mon 08:05:00 PM -24.3306 132.7694 62° Northeast  Level FlightAware Approximate
Mon 08:06:00 PM -24.2898 132.8544 62° Northeast  Level FlightAware Approximate
Mon 08:07:00 PM -24.2219 132.9956 62° Northeast  Level FlightAware Approximate
Mon 08:07:10 PM -24.1894 133.0630 62° Northeast 2,800  Level Aus ATC (Calculated)
Mon 08:08:00 PM -24.1810 133.0805 62° Northeast  Level FlightAware Approximate
Mon 08:08:02 PM -24.1456 133.1538 62° Northeast 2,800  Level Aus ATC (Calculated)
Mon 08:09:00 PM -24.1143 133.2185 62° Northeast  Level FlightAware Approximate
Mon 08:10:00 PM -24.0648 133.3206 62° Northeast  Level FlightAware Approximate
Mon 08:11:00 PM -24.0237 133.4052 62° Northeast  Level FlightAware Approximate
Mon 08:11:01 PM -24.0136 133.4259 62° Northeast 2,800  Level Aus ATC (Calculated)
Mon 08:11:10 PM -23.9696 133.5165 62° Northeast 2,800  Level Aus ATC (Calculated)
Mon 08:13:00 PM -23.8939 133.6715 62° Northeast  Level FlightAware Approximate
Mon 08:14:00 PM -23.8526 133.7560 62° Northeast  Level FlightAware Approximate
Mon 08:15:00 PM -23.8113 133.8404 62° Northeast  Level FlightAware Approximate
Mon 08:16:00 PM -23.7927 133.8782 62° Northeast  Level FlightAware Approximate
Mon 08:17:00 PM -23.8067 133.9022 62° Northeast  Level Estimated
Mon 08:18:00 PM -23.8067 133.9022 62° Northeast  Level Estimated
Mon 08:19:00 PM -23.8067 133.9022 62° Northeast  Level Estimated
Mon 08:20:00 PM -23.8067 133.9022 62° Northeast  Level Estimated
Mon 08:21:00 PM -23.8067 133.9022 62° Northeast  Level Estimated
Mon 08:22:00 PM -23.8067 133.9022 62° Northeast  Level Estimated
Mon 08:23:00 PM -23.8067 133.9022 62° Northeast  Level Estimated
Mon 08:24:00 PM -23.8067 133.9022 62° Northeast  Level Estimated
Mon 08:25:00 PM -23.8067 133.9022 62° Northeast  Level Estimated
Mon 08:26:00 PM -23.8067 133.9022 62° Northeast  Level Estimated
Mon 08:27:00 PM -23.8067 133.9022 62° Northeast  Level Estimated
Mon 08:28:00 PM -23.8067 133.9022 62° Northeast  Level Estimated
Mon 08:29:00 PM -23.8067 133.9022 62° Northeast  Level Estimated
Mon 08:30:00 PM -23.8067 133.9022 62° Northeast  Level Estimated
Mon 08:31:00 PM -23.8067 133.9022 62° Northeast  Level Estimated
Mon 08:32:00 PM -23.8067 133.9022 62° Northeast  Level Estimated
Mon 08:33:00 PM -23.8067 133.9022 62° Northeast  Level Estimated
Mon 08:34:00 PM -23.8067 133.9022 62° Northeast  Level Estimated
Mon 08:35:00 PM -23.8067 133.9022 62° Northeast  Level Estimated
Mon 08:36:00 PM -23.8067 133.9022 62° Northeast  Level Estimated
Mon 08:37:00 PM -23.8067 133.9022 62° Northeast  Level Estimated
Mon 08:38:00 PM -23.8067 133.9022 62° Northeast  Level Estimated

Login

Don't have an account? Register now (free) for customized features, flight alerts, and more!